sensor_id;sensor_type;location;lat;lon;timestamp;P1;durP1;ratioP1;P2;durP2;ratioP2
39822;SDS011;25499;53.958;10.970;2023-06-22T05:04:43;12.32;;;7.50;;
39822;SDS011;25499;53.958;10.970;2023-06-22T05:07:17;14.00;;;6.80;;
39822;SDS011;25499;53.958;10.970;2023-06-22T05:09:52;13.13;;;7.13;;
39822;SDS011;25499;53.958;10.970;2023-06-22T05:12:23;14.55;;;7.03;;
39822;SDS011;25499;53.958;10.970;2023-06-22T05:14:56;10.27;;;6.88;;
39822;SDS011;25499;53.958;10.970;2023-06-22T05:17:26;12.63;;;7.07;;
39822;SDS011;25499;53.958;10.970;2023-06-22T05:23:31;11.23;;;6.80;;
39822;SDS011;25499;53.958;10.970;2023-06-22T05:25:58;10.23;;;6.85;;
39822;SDS011;25499;53.958;10.970;2023-06-22T05:28:25;8.68;;;6.70;;
39822;SDS011;25499;53.958;10.970;2023-06-22T05:30:52;11.40;;;6.90;;
39822;SDS011;25499;53.958;10.970;2023-06-22T05:33:18;11.35;;;7.07;;
39822;SDS011;25499;53.958;10.970;2023-06-22T05:35:45;10.95;;;6.68;;
39822;SDS011;25499;53.958;10.970;2023-06-22T05:38:12;10.27;;;7.55;;
39822;SDS011;25499;53.958;10.970;2023-06-22T05:40:40;11.43;;;7.07;;
39822;SDS011;25499;53.958;10.970;2023-06-22T05:43:07;9.13;;;6.95;;
39822;SDS011;25499;53.958;10.970;2023-06-22T05:45:34;10.10;;;6.68;;
39822;SDS011;25499;53.958;10.970;2023-06-22T05:48:00;9.27;;;7.10;;
39822;SDS011;25499;53.958;10.970;2023-06-22T05:50:27;8.25;;;6.28;;
39822;SDS011;25499;53.958;10.970;2023-06-22T05:52:54;8.75;;;6.03;;
39822;SDS011;25499;53.958;10.970;2023-06-22T05:55:21;9.88;;;6.00;;
39822;SDS011;25499;53.958;10.970;2023-06-22T05:57:49;9.40;;;6.07;;
39822;SDS011;25499;53.958;10.970;2023-06-22T06:00:16;6.43;;;5.38;;
39822;SDS011;25499;53.958;10.970;2023-06-22T06:02:43;9.95;;;5.35;;
39822;SDS011;25499;53.958;10.970;2023-06-22T06:05:10;7.68;;;5.32;;
39822;SDS011;25499;53.958;10.970;2023-06-22T06:07:39;9.13;;;5.10;;
39822;SDS011;25499;53.958;10.970;2023-06-22T06:10:06;8.23;;;4.90;;
39822;SDS011;25499;53.958;10.970;2023-06-22T06:12:33;8.27;;;4.93;;
39822;SDS011;25499;53.958;10.970;2023-06-22T06:15:01;7.68;;;4.78;;
39822;SDS011;25499;53.958;10.970;2023-06-22T06:17:28;6.00;;;4.45;;
39822;SDS011;25499;53.958;10.970;2023-06-22T06:19:55;8.95;;;5.03;;
39822;SDS011;25499;53.958;10.970;2023-06-22T06:22:22;5.95;;;4.32;;
39822;SDS011;25499;53.958;10.970;2023-06-22T06:24:49;7.15;;;4.40;;
39822;SDS011;25499;53.958;10.970;2023-06-22T06:27:16;5.93;;;4.13;;
39822;SDS011;25499;53.958;10.970;2023-06-22T06:29:44;6.53;;;4.25;;
39822;SDS011;25499;53.958;10.970;2023-06-22T06:32:15;6.93;;;4.47;;
39822;SDS011;25499;53.958;10.970;2023-06-22T06:34:41;5.55;;;4.60;;
39822;SDS011;25499;53.958;10.970;2023-06-22T06:37:08;6.47;;;4.70;;
39822;SDS011;25499;53.958;10.970;2023-06-22T06:39:35;6.57;;;4.40;;
39822;SDS011;25499;53.958;10.970;2023-06-22T06:42:02;9.20;;;4.25;;
39822;SDS011;25499;53.958;10.970;2023-06-22T06:44:29;5.65;;;4.20;;
39822;SDS011;25499;53.958;10.970;2023-06-22T06:46:56;6.68;;;4.65;;
39822;SDS011;25499;53.958;10.970;2023-06-22T06:49:25;6.28;;;4.75;;
39822;SDS011;25499;53.958;10.970;2023-06-22T06:51:51;6.05;;;4.85;;
39822;SDS011;25499;53.958;10.970;2023-06-22T06:54:18;6.80;;;4.75;;
39822;SDS011;25499;53.958;10.970;2023-06-22T06:56:45;8.15;;;5.10;;
39822;SDS011;25499;53.958;10.970;2023-06-22T06:59:13;4.60;;;4.20;;
39822;SDS011;25499;53.958;10.970;2023-06-22T07:01:40;5.60;;;3.75;;
39822;SDS011;25499;53.958;10.970;2023-06-22T07:04:07;8.40;;;4.65;;
39822;SDS011;25499;53.958;10.970;2023-06-22T07:06:35;6.30;;;4.28;;
39822;SDS011;25499;53.958;10.970;2023-06-22T07:09:02;4.97;;;3.95;;
39822;SDS011;25499;53.958;10.970;2023-06-22T07:11:29;7.00;;;4.45;;
39822;SDS011;25499;53.958;10.970;2023-06-22T07:13:56;4.88;;;3.92;;
39822;SDS011;25499;53.958;10.970;2023-06-22T07:16:23;5.75;;;4.25;;
39822;SDS011;25499;53.958;10.970;2023-06-22T07:18:50;5.13;;;3.80;;
39822;SDS011;25499;53.958;10.970;2023-06-22T07:21:17;4.78;;;3.50;;
39822;SDS011;25499;53.958;10.970;2023-06-22T07:23:45;5.50;;;3.30;;
39822;SDS011;25499;53.958;10.970;2023-06-22T07:26:12;4.90;;;3.13;;
39822;SDS011;25499;53.958;10.970;2023-06-22T07:28:39;7.93;;;3.80;;
39822;SDS011;25499;53.958;10.970;2023-06-22T07:31:06;6.20;;;3.10;;
39822;SDS011;25499;53.958;10.970;2023-06-22T07:33:33;4.53;;;3.00;;
39822;SDS011;25499;53.958;10.970;2023-06-22T07:36:00;3.95;;;2.58;;
39822;SDS011;25499;53.958;10.970;2023-06-22T07:38:28;5.38;;;2.97;;
39822;SDS011;25499;53.958;10.970;2023-06-22T07:40:57;3.50;;;2.33;;
39822;SDS011;25499;53.958;10.970;2023-06-22T07:43:24;5.00;;;2.70;;
39822;SDS011;25499;53.958;10.970;2023-06-22T07:45:51;2.95;;;2.63;;
39822;SDS011;25499;53.958;10.970;2023-06-22T07:48:19;2.88;;;2.30;;
39822;SDS011;25499;53.958;10.970;2023-06-22T07:50:46;3.63;;;2.50;;
39822;SDS011;25499;53.958;10.970;2023-06-22T07:53:13;5.18;;;2.85;;
39822;SDS011;25499;53.958;10.970;2023-06-22T07:55:40;5.05;;;2.60;;
39822;SDS011;25499;53.958;10.970;2023-06-22T07:58:08;3.30;;;2.60;;
39822;SDS011;25499;53.958;10.970;2023-06-22T08:00:35;3.88;;;2.55;;
39822;SDS011;25499;53.958;10.970;2023-06-22T08:03:02;5.22;;;2.42;;
39822;SDS011;25499;53.958;10.970;2023-06-22T08:05:30;7.40;;;2.60;;
39822;SDS011;25499;53.958;10.970;2023-06-22T08:07:57;3.53;;;2.20;;
39822;SDS011;25499;53.958;10.970;2023-06-22T08:10:24;4.72;;;2.30;;
39822;SDS011;25499;53.958;10.970;2023-06-22T08:12:51;4.45;;;2.33;;
39822;SDS011;25499;53.958;10.970;2023-06-22T08:15:19;3.70;;;2.03;;
39822;SDS011;25499;53.958;10.970;2023-06-22T08:17:48;3.35;;;2.33;;
39822;SDS011;25499;53.958;10.970;2023-06-22T08:20:25;3.25;;;2.13;;
39822;SDS011;25499;53.958;10.970;2023-06-22T08:22:54;4.07;;;2.08;;
39822;SDS011;25499;53.958;10.970;2023-06-22T08:25:23;3.97;;;1.90;;
39822;SDS011;25499;53.958;10.970;2023-06-22T08:27:50;3.58;;;2.10;;
39822;SDS011;25499;53.958;10.970;2023-06-22T08:30:17;4.03;;;1.90;;
39822;SDS011;25499;53.958;10.970;2023-06-22T08:32:47;7.65;;;2.17;;
39822;SDS011;25499;53.958;10.970;2023-06-22T08:35:14;2.78;;;1.90;;
39822;SDS011;25499;53.958;10.970;2023-06-22T08:37:42;3.90;;;1.80;;
39822;SDS011;25499;53.958;10.970;2023-06-22T08:40:12;2.72;;;1.70;;
39822;SDS011;25499;53.958;10.970;2023-06-22T08:42:40;1.95;;;1.70;;
39822;SDS011;25499;53.958;10.970;2023-06-22T08:45:08;3.80;;;1.80;;
39822;SDS011;25499;53.958;10.970;2023-06-22T08:47:37;3.30;;;1.33;;
39822;SDS011;25499;53.958;10.970;2023-06-22T08:50:07;3.88;;;1.42;;
39822;SDS011;25499;53.958;10.970;2023-06-22T08:52:34;3.13;;;1.45;;
39822;SDS011;25499;53.958;10.970;2023-06-22T08:55:01;1.90;;;1.38;;
39822;SDS011;25499;53.958;10.970;2023-06-22T08:57:29;3.58;;;1.40;;
39822;SDS011;25499;53.958;10.970;2023-06-22T08:59:57;2.17;;;1.58;;
39822;SDS011;25499;53.958;10.970;2023-06-22T09:02:24;2.70;;;1.63;;
39822;SDS011;25499;53.958;10.970;2023-06-22T09:04:51;5.05;;;1.58;;
39822;SDS011;25499;53.958;10.970;2023-06-22T09:07:23;2.23;;;1.63;;
39822;SDS011;25499;53.958;10.970;2023-06-22T09:09:55;1.50;;;1.40;;
39822;SDS011;25499;53.958;10.970;2023-06-22T09:12:32;2.60;;;1.83;;
39822;SDS011;25499;53.958;10.970;2023-06-22T09:15:02;3.43;;;1.50;;
39822;SDS011;25499;53.958;10.970;2023-06-22T09:17:29;3.67;;;1.80;;
39822;SDS011;25499;53.958;10.970;2023-06-22T09:19:56;2.42;;;1.40;;
39822;SDS011;25499;53.958;10.970;2023-06-22T09:22:25;2.33;;;1.48;;
39822;SDS011;25499;53.958;10.970;2023-06-22T09:24:55;2.90;;;1.92;;
39822;SDS011;25499;53.958;10.970;2023-06-22T09:27:23;3.35;;;1.70;;
39822;SDS011;25499;53.958;10.970;2023-06-22T09:29:50;2.90;;;1.73;;
39822;SDS011;25499;53.958;10.970;2023-06-22T09:32:17;1.80;;;1.60;;
39822;SDS011;25499;53.958;10.970;2023-06-22T09:34:43;2.85;;;2.30;;
39822;SDS011;25499;53.958;10.970;2023-06-22T09:37:10;2.17;;;1.50;;
39822;SDS011;25499;53.958;10.970;2023-06-22T09:39:38;2.53;;;1.80;;
39822;SDS011;25499;53.958;10.970;2023-06-22T09:42:05;23.63;;;5.82;;
39822;SDS011;25499;53.958;10.970;2023-06-22T09:44:32;5.13;;;2.83;;
39822;SDS011;25499;53.958;10.970;2023-06-22T09:47:01;4.82;;;3.20;;
39822;SDS011;25499;53.958;10.970;2023-06-22T09:49:28;5.38;;;3.85;;
39822;SDS011;25499;53.958;10.970;2023-06-22T09:51:55;11.68;;;4.32;;
39822;SDS011;25499;53.958;10.970;2023-06-22T09:54:22;2.78;;;1.83;;
39822;SDS011;25499;53.958;10.970;2023-06-22T09:56:51;2.28;;;1.90;;
39822;SDS011;25499;53.958;10.970;2023-06-22T09:59:17;2.47;;;1.73;;
39822;SDS011;25499;53.958;10.970;2023-06-22T10:01:44;1.23;;;1.13;;
39822;SDS011;25499;53.958;10.970;2023-06-22T10:04:11;2.60;;;1.75;;
39822;SDS011;25499;53.958;10.970;2023-06-22T10:06:37;1.90;;;1.48;;
39822;SDS011;25499;53.958;10.970;2023-06-22T10:09:05;45.47;;;13.18;;
39822;SDS011;25499;53.958;10.970;2023-06-22T10:11:32;3.88;;;1.80;;
39822;SDS011;25499;53.958;10.970;2023-06-22T10:14:01;47.25;;;14.07;;
39822;SDS011;25499;53.958;10.970;2023-06-22T10:16:32;2.97;;;1.42;;
39822;SDS011;25499;53.958;10.970;2023-06-22T10:19:00;11.15;;;4.20;;
39822;SDS011;25499;53.958;10.970;2023-06-22T10:21:27;4.78;;;1.50;;
39822;SDS011;25499;53.958;10.970;2023-06-22T10:23:54;3.53;;;1.52;;
39822;SDS011;25499;53.958;10.970;2023-06-22T10:26:21;1.35;;;1.25;;
39822;SDS011;25499;53.958;10.970;2023-06-22T10:28:48;1.92;;;1.35;;
39822;SDS011;25499;53.958;10.970;2023-06-22T10:31:17;1.63;;;1.30;;
39822;SDS011;25499;53.958;10.970;2023-06-22T10:33:44;1.63;;;1.20;;
39822;SDS011;25499;53.958;10.970;2023-06-22T10:36:11;2.35;;;1.17;;
39822;SDS011;25499;53.958;10.970;2023-06-22T10:38:38;1.92;;;1.20;;
39822;SDS011;25499;53.958;10.970;2023-06-22T10:41:05;1.77;;;1.20;;
39822;SDS011;25499;53.958;10.970;2023-06-22T10:43:32;1.85;;;1.20;;
39822;SDS011;25499;53.958;10.970;2023-06-22T10:45:59;1.50;;;1.23;;
39822;SDS011;25499;53.958;10.970;2023-06-22T10:48:27;1.38;;;0.98;;
39822;SDS011;25499;53.958;10.970;2023-06-22T10:50:54;2.13;;;0.90;;
39822;SDS011;25499;53.958;10.970;2023-06-22T10:53:20;1.67;;;1.15;;
39822;SDS011;25499;53.958;10.970;2023-06-22T10:55:47;2.05;;;1.20;;
39822;SDS011;25499;53.958;10.970;2023-06-22T10:58:14;2.35;;;1.20;;
39822;SDS011;25499;53.958;10.970;2023-06-22T11:00:42;1.48;;;1.15;;
39822;SDS011;25499;53.958;10.970;2023-06-22T11:03:09;2.13;;;0.95;;
39822;SDS011;25499;53.958;10.970;2023-06-22T11:05:38;1.85;;;1.17;;
39822;SDS011;25499;53.958;10.970;2023-06-22T11:08:05;1.77;;;1.20;;
39822;SDS011;25499;53.958;10.970;2023-06-22T11:10:31;1.42;;;1.10;;
39822;SDS011;25499;53.958;10.970;2023-06-22T11:12:58;3.65;;;1.05;;
39822;SDS011;25499;53.958;10.970;2023-06-22T11:15:25;1.10;;;1.00;;
39822;SDS011;25499;53.958;10.970;2023-06-22T11:17:52;1.10;;;0.90;;
39822;SDS011;25499;53.958;10.970;2023-06-22T11:20:18;1.55;;;1.08;;
39822;SDS011;25499;53.958;10.970;2023-06-22T11:22:47;1.25;;;0.98;;
39822;SDS011;25499;53.958;10.970;2023-06-22T11:25:14;2.63;;;1.02;;
39822;SDS011;25499;53.958;10.970;2023-06-22T11:27:41;1.67;;;1.13;;
39822;SDS011;25499;53.958;10.970;2023-06-22T11:30:08;2.35;;;1.00;;
39822;SDS011;25499;53.958;10.970;2023-06-22T11:32:36;1.40;;;1.00;;
39822;SDS011;25499;53.958;10.970;2023-06-22T11:35:04;19.48;;;5.82;;
39822;SDS011;25499;53.958;10.970;2023-06-22T11:37:31;62.88;;;18.65;;
39822;SDS011;25499;53.958;10.970;2023-06-22T11:39:59;21.90;;;7.03;;
39822;SDS011;25499;53.958;10.970;2023-06-22T11:42:26;18.67;;;4.32;;
39822;SDS011;25499;53.958;10.970;2023-06-22T11:44:53;4.43;;;1.75;;
39822;SDS011;25499;53.958;10.970;2023-06-22T11:47:20;1.50;;;1.17;;
39822;SDS011;25499;53.958;10.970;2023-06-22T11:49:47;1.58;;;1.10;;
39822;SDS011;25499;53.958;10.970;2023-06-22T11:52:13;1.10;;;1.00;;
39822;SDS011;25499;53.958;10.970;2023-06-22T11:54:40;4.35;;;2.15;;
39822;SDS011;25499;53.958;10.970;2023-06-22T11:57:08;2.85;;;1.50;;
39822;SDS011;25499;53.958;10.970;2023-06-22T11:59:38;4.95;;;2.75;;
39822;SDS011;25499;53.958;10.970;2023-06-22T12:02:05;2.63;;;2.00;;
39822;SDS011;25499;53.958;10.970;2023-06-22T12:04:34;5.10;;;2.38;;
39822;SDS011;25499;53.958;10.970;2023-06-22T12:07:33;2.30;;;1.40;;
39822;SDS011;25499;53.958;10.970;2023-06-22T12:10:13;1.50;;;1.08;;
39822;SDS011;25499;53.958;10.970;2023-06-22T12:12:54;1.25;;;0.90;;
39822;SDS011;25499;53.958;10.970;2023-06-22T12:18:27;1.40;;;0.90;;
39822;SDS011;25499;53.958;10.970;2023-06-22T12:20:58;0.88;;;0.80;;
39822;SDS011;25499;53.958;10.970;2023-06-22T12:23:28;1.55;;;1.40;;
39822;SDS011;25499;53.958;10.970;2023-06-22T12:25:56;2.70;;;0.90;;
39822;SDS011;25499;53.958;10.970;2023-06-22T12:28:28;3.35;;;1.10;;
39822;SDS011;25499;53.958;10.970;2023-06-22T12:30:57;0.93;;;0.90;;
39822;SDS011;25499;53.958;10.970;2023-06-22T12:33:25;1.08;;;0.90;;
39822;SDS011;25499;53.958;10.970;2023-06-22T12:35:54;1.08;;;0.98;;
39822;SDS011;25499;53.958;10.970;2023-06-22T12:38:27;1.58;;;0.98;;
39822;SDS011;25499;53.958;10.970;2023-06-22T12:40:55;2.28;;;1.27;;
39822;SDS011;25499;53.958;10.970;2023-06-22T12:43:25;1.90;;;1.20;;
39822;SDS011;25499;53.958;10.970;2023-06-22T12:45:55;2.63;;;1.48;;
39822;SDS011;25499;53.958;10.970;2023-06-22T12:48:25;1.60;;;1.30;;
39822;SDS011;25499;53.958;10.970;2023-06-22T12:50:53;2.65;;;1.42;;
39822;SDS011;25499;53.958;10.970;2023-06-22T12:53:27;2.28;;;1.25;;
39822;SDS011;25499;53.958;10.970;2023-06-22T12:55:56;1.48;;;0.98;;
39822;SDS011;25499;53.958;10.970;2023-06-22T13:01:11;1.55;;;1.38;;
39822;SDS011;25499;53.958;10.970;2023-06-22T13:03:39;2.30;;;1.35;;
39822;SDS011;25499;53.958;10.970;2023-06-22T13:06:07;2.28;;;1.50;;
39822;SDS011;25499;53.958;10.970;2023-06-22T13:08:35;1.52;;;1.38;;
39822;SDS011;25499;53.958;10.970;2023-06-22T13:11:07;1.60;;;1.50;;
39822;SDS011;25499;53.958;10.970;2023-06-22T13:13:35;1.95;;;1.10;;
39822;SDS011;25499;53.958;10.970;2023-06-22T13:16:18;2.90;;;1.40;;
39822;SDS011;25499;53.958;10.970;2023-06-22T13:18:47;1.85;;;1.65;;
39822;SDS011;25499;53.958;10.970;2023-06-22T13:21:33;5.22;;;1.40;;
39822;SDS011;25499;53.958;10.970;2023-06-22T13:24:53;2.20;;;1.20;;
39822;SDS011;25499;53.958;10.970;2023-06-22T13:27:20;2.63;;;1.40;;
39822;SDS011;25499;53.958;10.970;2023-06-22T13:29:47;1.63;;;1.10;;
39822;SDS011;25499;53.958;10.970;2023-06-22T13:32:15;2.92;;;1.48;;
39822;SDS011;25499;53.958;10.970;2023-06-22T13:34:43;4.55;;;1.67;;
39822;SDS011;25499;53.958;10.970;2023-06-22T13:37:11;2.17;;;1.63;;
39822;SDS011;25499;53.958;10.970;2023-06-22T13:39:41;1.60;;;1.48;;
39822;SDS011;25499;53.958;10.970;2023-06-22T13:42:10;2.90;;;1.80;;
39822;SDS011;25499;53.958;10.970;2023-06-22T13:44:39;2.88;;;1.55;;
39822;SDS011;25499;53.958;10.970;2023-06-22T13:47:07;1.77;;;1.40;;
39822;SDS011;25499;53.958;10.970;2023-06-22T13:49:36;2.95;;;1.40;;
39822;SDS011;25499;53.958;10.970;2023-06-22T13:52:03;1.40;;;1.30;;
39822;SDS011;25499;53.958;10.970;2023-06-22T13:54:35;2.33;;;1.60;;
39822;SDS011;25499;53.958;10.970;2023-06-22T13:57:03;11.98;;;1.88;;
39822;SDS011;25499;53.958;10.970;2023-06-22T13:59:31;1.63;;;1.27;;
39822;SDS011;25499;53.958;10.970;2023-06-22T14:01:59;1.73;;;1.45;;
39822;SDS011;25499;53.958;10.970;2023-06-22T14:04:26;3.97;;;1.40;;
39822;SDS011;25499;53.958;10.970;2023-06-22T14:06:56;1.60;;;1.15;;
39822;SDS011;25499;53.958;10.970;2023-06-22T14:09:24;4.68;;;1.80;;
39822;SDS011;25499;53.958;10.970;2023-06-22T14:11:51;2.92;;;1.73;;
39822;SDS011;25499;53.958;10.970;2023-06-22T14:14:20;2.63;;;1.17;;
39822;SDS011;25499;53.958;10.970;2023-06-22T14:16:49;1.75;;;1.08;;
39822;SDS011;25499;53.958;10.970;2023-06-22T14:19:16;1.60;;;1.40;;
39822;SDS011;25499;53.958;10.970;2023-06-22T14:21:44;3.25;;;1.70;;
39822;SDS011;25499;53.958;10.970;2023-06-22T14:24:13;2.63;;;1.35;;
39822;SDS011;25499;53.958;10.970;2023-06-22T14:26:40;1.83;;;1.30;;
39822;SDS011;25499;53.958;10.970;2023-06-22T14:29:07;2.78;;;1.60;;
39822;SDS011;25499;53.958;10.970;2023-06-22T14:31:34;2.15;;;1.45;;
39822;SDS011;25499;53.958;10.970;2023-06-22T14:34:01;3.13;;;1.30;;
39822;SDS011;25499;53.958;10.970;2023-06-22T14:36:30;2.58;;;1.40;;
39822;SDS011;25499;53.958;10.970;2023-06-22T14:38:58;1.58;;;1.40;;
39822;SDS011;25499;53.958;10.970;2023-06-22T14:41:28;1.63;;;1.52;;
39822;SDS011;25499;53.958;10.970;2023-06-22T14:43:56;2.00;;;1.40;;
39822;SDS011;25499;53.958;10.970;2023-06-22T14:46:24;3.78;;;1.50;;
39822;SDS011;25499;53.958;10.970;2023-06-22T14:48:52;4.82;;;1.35;;
39822;SDS011;25499;53.958;10.970;2023-06-22T14:51:19;1.55;;;1.10;;
39822;SDS011;25499;53.958;10.970;2023-06-22T14:53:46;1.42;;;0.90;;
39822;SDS011;25499;53.958;10.970;2023-06-22T14:56:14;1.73;;;1.17;;
39822;SDS011;25499;53.958;10.970;2023-06-22T14:58:43;1.30;;;1.00;;
39822;SDS011;25499;53.958;10.970;2023-06-22T15:01:11;1.60;;;1.30;;
39822;SDS011;25499;53.958;10.970;2023-06-22T15:03:39;1.30;;;0.90;;
39822;SDS011;25499;53.958;10.970;2023-06-22T15:06:08;1.58;;;1.20;;
39822;SDS011;25499;53.958;10.970;2023-06-22T15:08:36;1.67;;;1.20;;
39822;SDS011;25499;53.958;10.970;2023-06-22T15:11:03;1.58;;;1.35;;
39822;SDS011;25499;53.958;10.970;2023-06-22T15:13:31;1.33;;;1.08;;
39822;SDS011;25499;53.958;10.970;2023-06-22T15:16:00;3.53;;;1.30;;
39822;SDS011;25499;53.958;10.970;2023-06-22T15:18:28;1.58;;;1.10;;
39822;SDS011;25499;53.958;10.970;2023-06-22T15:20:55;1.73;;;1.40;;
39822;SDS011;25499;53.958;10.970;2023-06-22T15:23:23;1.48;;;1.30;;
39822;SDS011;25499;53.958;10.970;2023-06-22T15:26:10;3.53;;;1.45;;
39822;SDS011;25499;53.958;10.970;2023-06-22T15:28:39;1.60;;;1.23;;
39822;SDS011;25499;53.958;10.970;2023-06-22T15:31:08;1.60;;;1.30;;
39822;SDS011;25499;53.958;10.970;2023-06-22T15:33:34;3.28;;;1.48;;
39822;SDS011;25499;53.958;10.970;2023-06-22T15:36:02;1.92;;;1.27;;
39822;SDS011;25499;53.958;10.970;2023-06-22T15:38:30;2.58;;;1.65;;
39822;SDS011;25499;53.958;10.970;2023-06-22T15:40:57;3.45;;;1.65;;
39822;SDS011;25499;53.958;10.970;2023-06-22T15:43:24;3.60;;;1.80;;
39822;SDS011;25499;53.958;10.970;2023-06-22T15:45:51;2.75;;;1.65;;
39822;SDS011;25499;53.958;10.970;2023-06-22T15:48:20;3.80;;;1.85;;
39822;SDS011;25499;53.958;10.970;2023-06-22T15:50:48;3.13;;;1.88;;
39822;SDS011;25499;53.958;10.970;2023-06-22T15:53:14;3.83;;;1.90;;
39822;SDS011;25499;53.958;10.970;2023-06-22T15:55:41;3.15;;;1.90;;
39822;SDS011;25499;53.958;10.970;2023-06-22T15:58:08;4.38;;;2.20;;
39822;SDS011;25499;53.958;10.970;2023-06-22T16:00:37;2.87;;;1.70;;
39822;SDS011;25499;53.958;10.970;2023-06-22T16:03:04;4.88;;;2.65;;
39822;SDS011;25499;53.958;10.970;2023-06-22T16:05:32;4.88;;;2.70;;
39822;SDS011;25499;53.958;10.970;2023-06-22T16:07:59;5.07;;;3.70;;
39822;SDS011;25499;53.958;10.970;2023-06-22T16:10:26;4.70;;;3.22;;
39822;SDS011;25499;53.958;10.970;2023-06-22T16:12:53;5.97;;;3.10;;
39822;SDS011;25499;53.958;10.970;2023-06-22T16:15:19;5.40;;;3.03;;
39822;SDS011;25499;53.958;10.970;2023-06-22T16:17:46;5.07;;;2.28;;
39822;SDS011;25499;53.958;10.970;2023-06-22T16:20:13;9.02;;;3.33;;
39822;SDS011;25499;53.958;10.970;2023-06-22T16:22:43;2.95;;;1.52;;
39822;SDS011;25499;53.958;10.970;2023-06-22T16:25:11;5.57;;;2.00;;
39822;SDS011;25499;53.958;10.970;2023-06-22T16:27:37;3.47;;;1.90;;
39822;SDS011;25499;53.958;10.970;2023-06-22T16:30:05;1.85;;;1.30;;
39822;SDS011;25499;53.958;10.970;2023-06-22T16:32:33;3.28;;;1.38;;
39822;SDS011;25499;53.958;10.970;2023-06-22T16:35:00;2.47;;;1.48;;
39822;SDS011;25499;53.958;10.970;2023-06-22T16:37:27;2.45;;;1.10;;
39822;SDS011;25499;53.958;10.970;2023-06-22T16:39:55;4.18;;;1.30;;
39822;SDS011;25499;53.958;10.970;2023-06-22T16:42:22;1.77;;;1.30;;
39822;SDS011;25499;53.958;10.970;2023-06-22T16:44:48;2.17;;;1.50;;
39822;SDS011;25499;53.958;10.970;2023-06-22T16:47:15;1.20;;;1.08;;
39822;SDS011;25499;53.958;10.970;2023-06-22T16:49:42;2.83;;;1.13;;
39822;SDS011;25499;53.958;10.970;2023-06-22T16:52:08;1.65;;;1.15;;
39822;SDS011;25499;53.958;10.970;2023-06-22T16:54:35;2.00;;;0.98;;
39822;SDS011;25499;53.958;10.970;2023-06-22T16:57:04;2.50;;;1.00;;
39822;SDS011;25499;53.958;10.970;2023-06-22T16:59:31;1.25;;;1.08;;
39822;SDS011;25499;53.958;10.970;2023-06-22T17:01:58;1.45;;;0.82;;
39822;SDS011;25499;53.958;10.970;2023-06-22T17:04:27;1.63;;;1.13;;
39822;SDS011;25499;53.958;10.970;2023-06-22T17:06:57;1.10;;;1.00;;
39822;SDS011;25499;53.958;10.970;2023-06-22T17:09:27;1.13;;;1.00;;
39822;SDS011;25499;53.958;10.970;2023-06-22T17:11:55;1.60;;;1.00;;
39822;SDS011;25499;53.958;10.970;2023-06-22T17:14:24;1.02;;;0.70;;
39822;SDS011;25499;53.958;10.970;2023-06-22T17:16:50;2.40;;;1.10;;
39822;SDS011;25499;53.958;10.970;2023-06-22T17:19:17;1.88;;;0.88;;
39822;SDS011;25499;53.958;10.970;2023-06-22T17:21:45;1.27;;;0.93;;
39822;SDS011;25499;53.958;10.970;2023-06-22T17:24:13;1.30;;;1.00;;
39822;SDS011;25499;53.958;10.970;2023-06-22T17:26:44;1.42;;;0.95;;
39822;SDS011;25499;53.958;10.970;2023-06-22T17:29:12;1.85;;;1.15;;
39822;SDS011;25499;53.958;10.970;2023-06-22T17:31:41;1.30;;;0.80;;
39822;SDS011;25499;53.958;10.970;2023-06-22T17:34:09;1.10;;;1.00;;
39822;SDS011;25499;53.958;10.970;2023-06-22T17:36:39;1.38;;;0.75;;
39822;SDS011;25499;53.958;10.970;2023-06-22T17:39:09;1.15;;;0.90;;
39822;SDS011;25499;53.958;10.970;2023-06-22T17:41:37;1.00;;;0.90;;
39822;SDS011;25499;53.958;10.970;2023-06-22T17:44:04;1.65;;;0.95;;
39822;SDS011;25499;53.958;10.970;2023-06-22T17:46:33;1.45;;;0.85;;
39822;SDS011;25499;53.958;10.970;2023-06-22T17:49:02;2.90;;;0.93;;
39822;SDS011;25499;53.958;10.970;2023-06-22T17:51:33;1.17;;;1.02;;
39822;SDS011;25499;53.958;10.970;2023-06-22T17:54:00;1.00;;;0.90;;
39822;SDS011;25499;53.958;10.970;2023-06-22T17:56:27;1.52;;;0.95;;
39822;SDS011;25499;53.958;10.970;2023-06-22T17:58:54;1.50;;;1.00;;
39822;SDS011;25499;53.958;10.970;2023-06-22T18:01:29;1.70;;;1.00;;
39822;SDS011;25499;53.958;10.970;2023-06-22T18:04:01;1.95;;;0.90;;
39822;SDS011;25499;53.958;10.970;2023-06-22T18:06:33;1.35;;;0.65;;
39822;SDS011;25499;53.958;10.970;2023-06-22T18:09:01;1.20;;;0.80;;
39822;SDS011;25499;53.958;10.970;2023-06-22T18:11:31;1.17;;;0.88;;
39822;SDS011;25499;53.958;10.970;2023-06-22T18:13:59;2.53;;;0.80;;
39822;SDS011;25499;53.958;10.970;2023-06-22T18:16:27;1.50;;;0.98;;
39822;SDS011;25499;53.958;10.970;2023-06-22T18:18:56;1.33;;;1.00;;
39822;SDS011;25499;53.958;10.970;2023-06-22T18:21:26;0.90;;;0.80;;
39822;SDS011;25499;53.958;10.970;2023-06-22T18:23:53;2.25;;;0.80;;
39822;SDS011;25499;53.958;10.970;2023-06-22T18:26:20;1.65;;;0.88;;
39822;SDS011;25499;53.958;10.970;2023-06-22T18:28:50;1.08;;;0.70;;
39822;SDS011;25499;53.958;10.970;2023-06-22T18:31:17;1.25;;;0.82;;
39822;SDS011;25499;53.958;10.970;2023-06-22T18:33:45;1.23;;;0.88;;
39822;SDS011;25499;53.958;10.970;2023-06-22T18:36:12;1.27;;;0.93;;
39822;SDS011;25499;53.958;10.970;2023-06-22T18:38:42;2.08;;;0.93;;
39822;SDS011;25499;53.958;10.970;2023-06-22T18:41:20;1.23;;;0.98;;
39822;SDS011;25499;53.958;10.970;2023-06-22T18:43:48;1.13;;;0.90;;
39822;SDS011;25499;53.958;10.970;2023-06-22T18:49:13;1.45;;;0.90;;
39822;SDS011;25499;53.958;10.970;2023-06-22T18:51:50;2.00;;;1.05;;
39822;SDS011;25499;53.958;10.970;2023-06-22T18:54:20;1.45;;;1.00;;
39822;SDS011;25499;53.958;10.970;2023-06-22T18:56:52;4.03;;;1.00;;
39822;SDS011;25499;53.958;10.970;2023-06-22T19:02:12;1.48;;;0.98;;
39822;SDS011;25499;53.958;10.970;2023-06-22T19:04:40;2.03;;;1.20;;
39822;SDS011;25499;53.958;10.970;2023-06-22T19:07:08;1.65;;;1.15;;
39822;SDS011;25499;53.958;10.970;2023-06-22T19:09:38;1.63;;;1.10;;
39822;SDS011;25499;53.958;10.970;2023-06-22T19:12:18;1.30;;;1.20;;
39822;SDS011;25499;53.958;10.970;2023-06-22T19:14:59;2.78;;;1.10;;
39822;SDS011;25499;53.958;10.970;2023-06-22T19:17:35;2.33;;;1.15;;
39822;SDS011;25499;53.958;10.970;2023-06-22T19:20:02;2.05;;;1.15;;
39822;SDS011;25499;53.958;10.970;2023-06-22T19:25:22;3.17;;;1.77;;
39822;SDS011;25499;53.958;10.970;2023-06-22T19:27:51;4.30;;;1.80;;
39822;SDS011;25499;53.958;10.970;2023-06-22T19:30:19;1.73;;;1.42;;
39822;SDS011;25499;53.958;10.970;2023-06-22T19:32:47;3.00;;;1.60;;
39822;SDS011;25499;53.958;10.970;2023-06-22T19:35:14;3.15;;;1.90;;
39822;SDS011;25499;53.958;10.970;2023-06-22T19:37:42;4.07;;;1.90;;
39822;SDS011;25499;53.958;10.970;2023-06-22T19:40:09;3.08;;;2.05;;
39822;SDS011;25499;53.958;10.970;2023-06-22T19:42:39;2.80;;;1.95;;
39822;SDS011;25499;53.958;10.970;2023-06-22T19:45:07;2.38;;;1.80;;
39822;SDS011;25499;53.958;10.970;2023-06-22T19:47:35;2.90;;;2.10;;
39822;SDS011;25499;53.958;10.970;2023-06-22T19:50:03;4.07;;;2.10;;
39822;SDS011;25499;53.958;10.970;2023-06-22T19:52:34;3.78;;;1.92;;
39822;SDS011;25499;53.958;10.970;2023-06-22T19:57:32;3.53;;;1.95;;
39822;SDS011;25499;53.958;10.970;2023-06-22T20:00:02;3.92;;;2.10;;
39822;SDS011;25499;53.958;10.970;2023-06-22T20:02:41;3.75;;;1.98;;
39822;SDS011;25499;53.958;10.970;2023-06-22T20:05:09;2.20;;;1.83;;